sensor_id;sensor_type;location;lat;lon;timestamp;P1;P4;P2;P0;N10;N4;N25;N1;N05;TS
78460;SPS30;67755;51.986;5.696;2023-12-20T00:01:55;3.6;3.5;3.3;2.9;;;;1.0;22.0;
78460;SPS30;67755;51.986;5.696;2023-12-20T00:04:24;3.0;2.9;2.7;2.4;;;;1.0;22.0;
78460;SPS30;67755;51.986;5.696;2023-12-20T00:06:52;2.9;2.8;2.7;2.3;;;;1.0;21.0;
78460;SPS30;67755;51.986;5.696;2023-12-20T00:09:21;3.7;3.6;3.4;3.0;;;;1.0;20.0;
78460;SPS30;67755;51.986;5.696;2023-12-20T00:11:49;3.4;3.3;3.1;2.7;;;;1.0;19.0;
78460;SPS30;67755;51.986;5.696;2023-12-20T00:14:18;3.4;3.3;3.0;2.6;;;;1.0;16.0;
78460;SPS30;67755;51.986;5.696;2023-12-20T00:16:46;3.4;3.3;3.1;2.6;;;;1.0;17.0;
78460;SPS30;67755;51.986;5.696;2023-12-20T00:19:15;3.9;3.7;3.4;2.9;;;;1.0;16.0;
78460;SPS30;67755;51.986;5.696;2023-12-20T00:21:44;3.3;3.2;3.0;2.6;;;;1.0;17.0;
78460;SPS30;67755;51.986;5.696;2023-12-20T00:24:14;3.8;3.7;3.3;2.8;;;;1.0;15.0;
78460;SPS30;67755;51.986;5.696;2023-12-20T00:26:43;3.9;3.8;3.5;2.9;;;;1.0;15.0;
78460;SPS30;67755;51.986;5.696;2023-12-20T00:29:11;3.4;3.3;3.0;2.6;;;;1.0;16.0;
78460;SPS30;67755;51.986;5.696;2023-12-20T00:31:40;3.9;3.7;3.4;2.9;;;;1.0;17.0;
78460;SPS30;67755;51.986;5.696;2023-12-20T00:34:08;3.4;3.3;3.0;2.6;;;;1.0;20.0;
78460;SPS30;67755;51.986;5.696;2023-12-20T00:36:37;2.7;2.6;2.4;2.0;;;;1.0;23.0;
78460;SPS30;67755;51.986;5.696;2023-12-20T00:39:05;4.2;4.0;3.6;3.0;;;;1.0;22.0;
78460;SPS30;67755;51.986;5.696;2023-12-20T00:41:34;3.4;3.2;2.9;2.4;;;;1.0;20.0;
78460;SPS30;67755;51.986;5.696;2023-12-20T00:44:03;3.7;3.5;3.1;2.5;;;;1.0;20.0;
78460;SPS30;67755;51.986;5.696;2023-12-20T00:46:32;4.3;4.1;3.6;2.9;;;;1.0;20.0;
78460;SPS30;67755;51.986;5.696;2023-12-20T00:49:02;4.1;3.9;3.4;2.8;;;;1.0;25.0;
78460;SPS30;67755;51.986;5.696;2023-12-20T00:51:30;3.6;3.4;3.1;2.5;;;;1.0;24.0;
78460;SPS30;67755;51.986;5.696;2023-12-20T00:53:59;3.4;3.3;3.0;2.5;;;;1.0;24.0;
78460;SPS30;67755;51.986;5.696;2023-12-20T00:56:27;3.6;3.4;3.1;2.5;;;;1.0;29.0;
78460;SPS30;67755;51.986;5.696;2023-12-20T00:58:56;3.0;2.9;2.6;2.2;;;;1.0;38.0;
78460;SPS30;67755;51.986;5.696;2023-12-20T01:01:25;3.5;3.3;3.1;2.6;;;;1.0;34.0;
78460;SPS30;67755;51.986;5.696;2023-12-20T01:03:53;3.4;3.3;3.0;2.5;;;;1.0;31.0;
78460;SPS30;67755;51.986;5.696;2023-12-20T01:06:22;3.5;3.3;3.1;2.6;;;;1.0;30.0;
78460;SPS30;67755;51.986;5.696;2023-12-20T01:08:52;3.4;3.3;3.0;2.6;;;;1.0;35.0;
78460;SPS30;67755;51.986;5.696;2023-12-20T01:11:21;3.6;3.5;3.2;2.7;;;;1.0;33.0;
78460;SPS30;67755;51.986;5.696;2023-12-20T01:13:50;3.4;3.3;3.1;2.6;;;;1.0;27.0;
78460;SPS30;67755;51.986;5.696;2023-12-20T01:16:18;3.5;3.3;3.0;2.6;;;;1.0;25.0;
78460;SPS30;67755;51.986;5.696;2023-12-20T01:18:47;3.6;3.5;3.2;2.7;;;;1.0;27.0;
78460;SPS30;67755;51.986;5.696;2023-12-20T01:21:16;2.8;2.7;2.5;2.1;;;;1.0;33.0;
78460;SPS30;67755;51.986;5.696;2023-12-20T01:23:44;3.5;3.4;3.1;2.6;;;;1.0;34.0;
78460;SPS30;67755;51.986;5.696;2023-12-20T01:26:14;3.3;3.2;2.8;2.3;;;;1.0;33.0;
78460;SPS30;67755;51.986;5.696;2023-12-20T01:28:43;3.3;3.2;2.8;2.3;;;;1.0;34.0;
78460;SPS30;67755;51.986;5.696;2023-12-20T01:31:11;3.0;2.9;2.6;2.2;;;;1.0;34.0;
78460;SPS30;67755;51.986;5.696;2023-12-20T01:33:40;2.7;2.6;2.4;2.0;;;;1.0;30.0;
78460;SPS30;67755;51.986;5.696;2023-12-20T01:36:08;2.9;2.8;2.5;2.1;;;;1.0;30.0;
78460;SPS30;67755;51.986;5.696;2023-12-20T01:38:37;3.1;3.0;2.8;2.4;;;;1.0;38.0;
78460;SPS30;67755;51.986;5.696;2023-12-20T01:41:06;3.3;3.1;2.9;2.5;;;;1.0;39.0;
78460;SPS30;67755;51.986;5.696;2023-12-20T01:43:34;3.0;2.9;2.6;2.2;;;;1.0;36.0;
78460;SPS30;67755;51.986;5.696;2023-12-20T01:46:03;3.3;3.1;2.9;2.4;;;;1.0;35.0;
78460;SPS30;67755;51.986;5.696;2023-12-20T01:48:33;3.3;3.1;2.8;2.3;;;;1.0;31.0;
78460;SPS30;67755;51.986;5.696;2023-12-20T01:51:04;3.1;3.0;2.7;2.2;;;;1.0;23.0;
78460;SPS30;67755;51.986;5.696;2023-12-20T01:53:33;3.9;3.7;3.3;2.6;;;;1.0;23.0;
78460;SPS30;67755;51.986;5.696;2023-12-20T01:56:03;3.0;2.9;2.5;2.0;;;;1.0;23.0;
78460;SPS30;67755;51.986;5.696;2023-12-20T01:58:32;3.5;3.3;2.9;2.2;;;;1.0;25.0;
78460;SPS30;67755;51.986;5.696;2023-12-20T02:01:02;3.9;3.7;3.2;2.4;;;;1.0;24.0;
78460;SPS30;67755;51.986;5.696;2023-12-20T02:03:31;3.9;3.7;3.0;2.2;;;;1.0;24.0;
78460;SPS30;67755;51.986;5.696;2023-12-20T02:06:02;3.6;3.4;2.8;2.0;;;;1.0;22.0;
78460;SPS30;67755;51.986;5.696;2023-12-20T02:08:31;4.4;4.1;3.5;2.6;;;;2.0;22.0;
78460;SPS30;67755;51.986;5.696;2023-12-20T02:11:00;3.3;3.1;2.6;2.0;;;;2.0;27.0;
78460;SPS30;67755;51.986;5.696;2023-12-20T02:13:29;3.8;3.5;3.0;2.3;;;;2.0;26.0;
78460;SPS30;67755;51.986;5.696;2023-12-20T02:15:59;3.8;3.6;3.1;2.4;;;;2.0;27.0;
78460;SPS30;67755;51.986;5.696;2023-12-20T02:18:28;3.6;3.4;2.9;2.2;;;;2.0;29.0;
78460;SPS30;67755;51.986;5.696;2023-12-20T02:20:57;4.1;3.8;3.2;2.4;;;;2.0;30.0;
78460;SPS30;67755;51.986;5.696;2023-12-20T02:23:26;3.7;3.5;2.9;2.2;;;;2.0;33.0;
78460;SPS30;67755;51.986;5.696;2023-12-20T02:25:54;3.4;3.2;2.7;2.1;;;;2.0;42.0;
78460;SPS30;67755;51.986;5.696;2023-12-20T02:28:25;3.6;3.4;3.0;2.3;;;;2.0;39.0;
78460;SPS30;67755;51.986;5.696;2023-12-20T02:30:54;3.7;3.5;3.0;2.3;;;;2.0;39.0;
78460;SPS30;67755;51.986;5.696;2023-12-20T02:33:23;5.3;4.9;4.0;2.9;;;;2.0;37.0;
78460;SPS30;67755;51.986;5.696;2023-12-20T02:35:52;4.4;4.1;3.3;2.3;;;;2.0;33.0;
78460;SPS30;67755;51.986;5.696;2023-12-20T02:38:20;4.2;3.8;3.1;2.1;;;;2.0;35.0;
78460;SPS30;67755;51.986;5.696;2023-12-20T02:40:49;5.1;4.7;3.8;2.7;;;;2.0;38.0;
78460;SPS30;67755;51.986;5.696;2023-12-20T02:43:17;4.6;4.2;3.5;2.5;;;;2.0;43.0;
78460;SPS30;67755;51.986;5.696;2023-12-20T02:45:46;4.6;4.2;3.5;2.6;;;;2.0;41.0;
78460;SPS30;67755;51.986;5.696;2023-12-20T02:48:14;5.1;4.7;3.9;2.8;;;;2.0;27.0;
78460;SPS30;67755;51.986;5.696;2023-12-20T02:50:43;4.1;3.8;3.1;2.1;;;;2.0;25.0;
78460;SPS30;67755;51.986;5.696;2023-12-20T02:53:14;4.6;4.2;3.4;2.3;;;;2.0;25.0;
78460;SPS30;67755;51.986;5.696;2023-12-20T02:55:42;5.0;4.6;3.8;2.6;;;;2.0;27.0;
78460;SPS30;67755;51.986;5.696;2023-12-20T02:58:12;5.3;4.9;4.0;2.8;;;;2.0;28.0;
78460;SPS30;67755;51.986;5.696;2023-12-20T03:00:41;5.5;5.0;4.1;2.8;;;;2.0;26.0;
78460;SPS30;67755;51.986;5.696;2023-12-20T03:03:10;5.3;4.9;4.0;2.8;;;;2.0;26.0;
78460;SPS30;67755;51.986;5.696;2023-12-20T03:05:39;5.1;4.7;3.8;2.6;;;;2.0;30.0;
78460;SPS30;67755;51.986;5.696;2023-12-20T03:08:07;4.4;4.0;3.3;2.4;;;;2.0;37.0;
78460;SPS30;67755;51.986;5.696;2023-12-20T03:10:36;4.7;4.4;3.6;2.6;;;;2.0;39.0;
78460;SPS30;67755;51.986;5.696;2023-12-20T03:13:05;5.1;4.7;3.9;2.8;;;;2.0;39.0;
78460;SPS30;67755;51.986;5.696;2023-12-20T03:15:34;5.3;4.9;4.1;2.9;;;;2.0;36.0;
78460;SPS30;67755;51.986;5.696;2023-12-20T03:18:04;5.5;5.1;4.1;2.8;;;;2.0;33.0;
78460;SPS30;67755;51.986;5.696;2023-12-20T03:20:33;4.6;4.2;3.4;2.3;;;;2.0;27.0;
78460;SPS30;67755;51.986;5.696;2023-12-20T03:23:03;4.3;4.0;3.3;2.4;;;;2.0;27.0;
78460;SPS30;67755;51.986;5.696;2023-12-20T03:25:32;5.1;4.7;4.0;2.9;;;;2.0;28.0;
78460;SPS30;67755;51.986;5.696;2023-12-20T03:28:00;4.3;4.0;3.4;2.6;;;;2.0;28.0;
78460;SPS30;67755;51.986;5.696;2023-12-20T03:30:29;4.8;4.4;3.7;2.7;;;;2.0;28.0;
78460;SPS30;67755;51.986;5.696;2023-12-20T03:32:58;5.0;4.7;3.9;2.8;;;;2.0;28.0;
78460;SPS30;67755;51.986;5.696;2023-12-20T03:35:26;4.3;4.0;3.4;2.4;;;;2.0;30.0;
78460;SPS30;67755;51.986;5.696;2023-12-20T03:37:57;4.8;4.5;3.8;2.8;;;;2.0;30.0;
78460;SPS30;67755;51.986;5.696;2023-12-20T03:40:26;4.2;3.9;3.3;2.4;;;;2.0;39.0;
78460;SPS30;67755;51.986;5.696;2023-12-20T03:42:55;4.7;4.3;3.6;2.5;;;;2.0;38.0;
78460;SPS30;67755;51.986;5.696;2023-12-20T03:45:23;6.2;5.7;4.6;3.2;;;;2.0;32.0;
78460;SPS30;67755;51.986;5.696;2023-12-20T03:47:52;5.9;5.4;4.3;2.8;;;;2.0;32.0;
78460;SPS30;67755;51.986;5.696;2023-12-20T03:50:22;5.2;4.8;3.9;2.7;;;;2.0;40.0;
78460;SPS30;67755;51.986;5.696;2023-12-20T03:52:51;4.7;4.3;3.6;2.6;;;;2.0;54.0;
78460;SPS30;67755;51.986;5.696;2023-12-20T03:55:20;4.2;3.9;3.3;2.5;;;;2.0;50.0;
78460;SPS30;67755;51.986;5.696;2023-12-20T03:57:49;4.1;3.9;3.3;2.6;;;;2.0;48.0;
78460;SPS30;67755;51.986;5.696;2023-12-20T04:00:18;4.9;4.6;3.9;2.9;;;;2.0;45.0;
78460;SPS30;67755;51.986;5.696;2023-12-20T04:02:46;5.3;5.0;4.2;3.2;;;;2.0;45.0;
78460;SPS30;67755;51.986;5.696;2023-12-20T04:05:15;5.2;4.9;4.1;3.0;;;;2.0;48.0;
78460;SPS30;67755;51.986;5.696;2023-12-20T04:07:44;5.2;4.8;4.1;3.0;;;;2.0;44.0;
78460;SPS30;67755;51.986;5.696;2023-12-20T04:10:13;3.8;3.5;2.9;2.1;;;;2.0;46.0;
78460;SPS30;67755;51.986;5.696;2023-12-20T04:12:42;5.2;4.8;4.0;2.8;;;;2.0;45.0;
78460;SPS30;67755;51.986;5.696;2023-12-20T04:15:11;5.2;4.8;3.9;2.8;;;;2.0;43.0;
78460;SPS30;67755;51.986;5.696;2023-12-20T04:17:39;5.2;4.9;4.0;2.9;;;;2.0;43.0;
78460;SPS30;67755;51.986;5.696;2023-12-20T04:20:08;5.2;4.8;4.0;2.8;;;;2.0;35.0;
78460;SPS30;67755;51.986;5.696;2023-12-20T04:22:37;6.2;5.7;4.6;3.2;;;;2.0;29.0;
78460;SPS30;67755;51.986;5.696;2023-12-20T04:25:06;6.2;5.7;4.6;3.1;;;;2.0;27.0;
78460;SPS30;67755;51.986;5.696;2023-12-20T04:27:38;5.2;4.7;3.8;2.6;;;;2.0;26.0;
78460;SPS30;67755;51.986;5.696;2023-12-20T04:30:09;6.3;5.8;4.7;3.3;;;;2.0;29.0;
78460;SPS30;67755;51.986;5.696;2023-12-20T04:32:40;5.9;5.4;4.3;2.8;;;;2.0;30.0;
78460;SPS30;67755;51.986;5.696;2023-12-20T04:35:08;6.3;5.7;4.5;3.0;;;;2.0;31.0;
78460;SPS30;67755;51.986;5.696;2023-12-20T04:37:39;5.8;5.3;4.2;2.7;;;;2.0;32.0;
78460;SPS30;67755;51.986;5.696;2023-12-20T04:40:08;5.7;5.2;4.1;2.7;;;;2.0;29.0;
78460;SPS30;67755;51.986;5.696;2023-12-20T04:42:37;5.7;5.2;4.1;2.6;;;;2.0;25.0;
78460;SPS30;67755;51.986;5.696;2023-12-20T04:45:06;6.1;5.6;4.4;2.9;;;;2.0;26.0;
78460;SPS30;67755;51.986;5.696;2023-12-20T04:47:35;5.2;4.8;3.8;2.5;;;;2.0;27.0;
78460;SPS30;67755;51.986;5.696;2023-12-20T04:50:04;6.1;5.5;4.4;2.9;;;;2.0;44.0;
78460;SPS30;67755;51.986;5.696;2023-12-20T04:52:33;5.3;4.8;3.8;2.4;;;;2.0;43.0;
78460;SPS30;67755;51.986;5.696;2023-12-20T04:55:02;5.1;4.6;3.6;2.3;;;;2.0;51.0;
78460;SPS30;67755;51.986;5.696;2023-12-20T04:57:31;6.7;6.1;4.8;3.0;;;;2.0;55.0;
78460;SPS30;67755;51.986;5.696;2023-12-20T05:00:00;6.9;6.3;4.9;3.1;;;;2.0;44.0;
78460;SPS30;67755;51.986;5.696;2023-12-20T05:02:30;6.8;6.2;4.8;3.0;;;;2.0;29.0;
78460;SPS30;67755;51.986;5.696;2023-12-20T05:04:59;6.8;6.0;4.5;2.6;;;;2.0;30.0;
78460;SPS30;67755;51.986;5.696;2023-12-20T05:07:28;6.5;5.8;4.4;2.6;;;;2.0;28.0;
78460;SPS30;67755;51.986;5.696;2023-12-20T05:09:56;7.3;6.6;5.0;2.9;;;;2.0;30.0;
78460;SPS30;67755;51.986;5.696;2023-12-20T05:12:26;7.3;6.6;5.0;2.9;;;;2.0;28.0;
78460;SPS30;67755;51.986;5.696;2023-12-20T05:14:57;7.5;6.8;5.3;3.2;;;;2.0;24.0;
78460;SPS30;67755;51.986;5.696;2023-12-20T05:17:28;6.7;6.1;4.7;2.8;;;;2.0;24.0;
78460;SPS30;67755;51.986;5.696;2023-12-20T05:19:58;6.5;5.9;4.7;2.9;;;;2.0;27.0;
78460;SPS30;67755;51.986;5.696;2023-12-20T05:22:27;7.3;6.6;5.1;3.2;;;;2.0;31.0;
78460;SPS30;67755;51.986;5.696;2023-12-20T05:24:56;5.1;4.6;3.6;2.3;;;;2.0;40.0;
78460;SPS30;67755;51.986;5.696;2023-12-20T05:27:25;6.2;5.6;4.4;2.8;;;;2.0;46.0;
78460;SPS30;67755;51.986;5.696;2023-12-20T05:29:55;7.3;6.5;5.0;2.9;;;;2.0;43.0;
78460;SPS30;67755;51.986;5.696;2023-12-20T05:32:23;6.4;5.8;4.4;2.6;;;;2.0;44.0;
78460;SPS30;67755;51.986;5.696;2023-12-20T05:34:52;6.0;5.4;4.1;2.4;;;;2.0;42.0;
78460;SPS30;67755;51.986;5.696;2023-12-20T05:37:21;6.4;5.7;4.3;2.5;;;;2.0;40.0;
78460;SPS30;67755;51.986;5.696;2023-12-20T05:39:49;6.8;6.1;4.7;2.8;;;;2.0;35.0;
78460;SPS30;67755;51.986;5.696;2023-12-20T05:42:18;5.9;5.3;4.1;2.4;;;;2.0;30.0;
78460;SPS30;67755;51.986;5.696;2023-12-20T05:44:48;6.5;5.9;4.5;2.7;;;;2.0;35.0;
78460;SPS30;67755;51.986;5.696;2023-12-20T05:47:17;6.3;5.7;4.4;2.6;;;;2.0;50.0;
78460;SPS30;67755;51.986;5.696;2023-12-20T05:49:47;7.2;6.5;5.0;3.0;;;;2.0;56.0;
78460;SPS30;67755;51.986;5.696;2023-12-20T05:52:16;7.2;6.5;5.0;3.1;;;;2.0;49.0;
78460;SPS30;67755;51.986;5.696;2023-12-20T05:54:44;7.7;6.9;5.4;3.4;;;;2.0;46.0;
78460;SPS30;67755;51.986;5.696;2023-12-20T05:57:13;5.7;5.2;4.1;2.7;;;;2.0;52.0;
78460;SPS30;67755;51.986;5.696;2023-12-20T05:59:42;6.7;6.0;4.7;3.0;;;;2.0;50.0;
78460;SPS30;67755;51.986;5.696;2023-12-20T06:02:11;6.1;5.5;4.4;2.9;;;;2.0;36.0;
78460;SPS30;67755;51.986;5.696;2023-12-20T06:04:39;5.8;5.3;4.1;2.7;;;;2.0;35.0;
78460;SPS30;67755;51.986;5.696;2023-12-20T06:07:12;5.8;5.3;4.2;2.8;;;;2.0;39.0;
78460;SPS30;67755;51.986;5.696;2023-12-20T06:09:42;5.5;4.9;3.9;2.4;;;;2.0;39.0;
78460;SPS30;67755;51.986;5.696;2023-12-20T06:12:11;7.0;6.3;4.9;3.0;;;;2.0;34.0;
78460;SPS30;67755;51.986;5.696;2023-12-20T06:14:39;6.9;6.2;4.8;2.9;;;;2.0;31.0;
78460;SPS30;67755;51.986;5.696;2023-12-20T06:17:08;6.7;6.0;4.6;2.8;;;;2.0;32.0;
78460;SPS30;67755;51.986;5.696;2023-12-20T06:19:37;5.9;5.4;4.3;2.8;;;;2.0;45.0;
78460;SPS30;67755;51.986;5.696;2023-12-20T06:22:05;5.7;5.2;4.1;2.6;;;;2.0;40.0;
78460;SPS30;67755;51.986;5.696;2023-12-20T06:24:34;6.7;6.1;4.8;3.0;;;;2.0;50.0;
78460;SPS30;67755;51.986;5.696;2023-12-20T06:27:02;8.3;7.5;5.8;3.6;;;;2.0;46.0;
78460;SPS30;67755;51.986;5.696;2023-12-20T06:29:31;7.2;6.5;5.0;3.1;;;;2.0;33.0;
78460;SPS30;67755;51.986;5.696;2023-12-20T06:32:00;6.6;5.9;4.6;2.8;;;;2.0;30.0;
78460;SPS30;67755;51.986;5.696;2023-12-20T06:34:29;6.6;6.0;4.6;2.9;;;;2.0;35.0;
78460;SPS30;67755;51.986;5.696;2023-12-20T06:36:58;6.8;6.2;4.8;3.0;;;;2.0;41.0;
78460;SPS30;67755;51.986;5.696;2023-12-20T06:39:26;8.4;7.5;5.7;3.4;;;;2.0;38.0;
78460;SPS30;67755;51.986;5.696;2023-12-20T06:41:57;8.3;7.4;5.5;3.1;;;;2.0;33.0;
78460;SPS30;67755;51.986;5.696;2023-12-20T06:44:25;7.5;6.7;5.0;2.8;;;;2.0;35.0;
78460;SPS30;67755;51.986;5.696;2023-12-20T06:46:54;7.4;6.6;5.0;2.8;;;;2.0;37.0;
78460;SPS30;67755;51.986;5.696;2023-12-20T06:49:23;7.6;6.8;5.0;2.8;;;;2.0;37.0;
78460;SPS30;67755;51.986;5.696;2023-12-20T06:51:51;7.6;6.8;5.2;3.0;;;;2.0;35.0;
78460;SPS30;67755;51.986;5.696;2023-12-20T06:54:20;6.8;6.1;4.7;2.9;;;;2.0;37.0;
78460;SPS30;67755;51.986;5.696;2023-12-20T06:56:48;6.5;5.8;4.5;2.8;;;;2.0;43.0;
78460;SPS30;67755;51.986;5.696;2023-12-20T06:59:17;6.4;5.7;4.4;2.7;;;;2.0;58.0;
78460;SPS30;67755;51.986;5.696;2023-12-20T07:01:49;7.2;6.5;5.0;3.1;;;;2.0;56.0;
78460;SPS30;67755;51.986;5.696;2023-12-20T07:04:17;6.1;5.6;4.4;2.8;;;;2.0;54.0;
78460;SPS30;67755;51.986;5.696;2023-12-20T07:06:48;7.0;6.3;5.0;3.2;;;;2.0;82.0;
78460;SPS30;67755;51.986;5.696;2023-12-20T07:09:20;7.6;6.9;5.2;3.1;;;;2.0;69.0;
78460;SPS30;67755;51.986;5.696;2023-12-20T07:11:48;8.7;7.8;6.0;3.6;;;;2.0;67.0;
78460;SPS30;67755;51.986;5.696;2023-12-20T07:14:17;7.8;7.1;5.5;3.5;;;;2.0;60.0;
78460;SPS30;67755;51.986;5.696;2023-12-20T07:16:46;7.7;6.9;5.4;3.3;;;;2.0;55.0;
78460;SPS30;67755;51.986;5.696;2023-12-20T07:19:15;6.5;5.9;4.6;2.9;;;;2.0;64.0;
78460;SPS30;67755;51.986;5.696;2023-12-20T07:21:43;6.2;5.6;4.5;3.0;;;;2.0;68.0;
78460;SPS30;67755;51.986;5.696;2023-12-20T07:24:12;5.6;5.1;4.1;2.8;;;;2.0;66.0;
78460;SPS30;67755;51.986;5.696;2023-12-20T07:26:40;6.1;5.6;4.5;3.0;;;;2.0;69.0;
78460;SPS30;67755;51.986;5.696;2023-12-20T07:29:09;5.3;4.8;3.9;2.5;;;;2.0;74.0;
78460;SPS30;67755;51.986;5.696;2023-12-20T07:31:38;8.0;7.3;5.7;3.6;;;;2.0;73.0;
78460;SPS30;67755;51.986;5.696;2023-12-20T07:34:07;6.9;6.3;4.9;3.1;;;;2.0;69.0;
78460;SPS30;67755;51.986;5.696;2023-12-20T07:36:35;6.1;5.5;4.4;2.8;;;;2.0;71.0;
78460;SPS30;67755;51.986;5.696;2023-12-20T07:39:04;6.8;6.2;5.0;3.4;;;;2.0;67.0;
78460;SPS30;67755;51.986;5.696;2023-12-20T07:41:33;6.9;6.3;4.9;3.1;;;;2.0;71.0;
78460;SPS30;67755;51.986;5.696;2023-12-20T07:44:03;8.0;7.2;5.7;3.6;;;;2.0;81.0;
78460;SPS30;67755;51.986;5.696;2023-12-20T07:46:33;7.0;6.3;5.0;3.2;;;;2.0;80.0;
78460;SPS30;67755;51.986;5.696;2023-12-20T07:49:01;6.0;5.5;4.4;2.9;;;;2.0;83.0;
78460;SPS30;67755;51.986;5.696;2023-12-20T07:51:30;6.1;5.7;4.6;3.2;;;;2.0;85.0;
78460;SPS30;67755;51.986;5.696;2023-12-20T07:53:58;7.1;6.5;5.2;3.4;;;;2.0;83.0;
78460;SPS30;67755;51.986;5.696;2023-12-20T07:56:27;6.9;6.3;4.9;3.0;;;;2.0;81.0;
78460;SPS30;67755;51.986;5.696;2023-12-20T07:58:58;8.4;7.6;6.0;3.9;;;;2.0;78.0;
78460;SPS30;67755;51.986;5.696;2023-12-20T08:01:27;6.9;6.3;5.0;3.2;;;;2.0;73.0;
78460;SPS30;67755;51.986;5.696;2023-12-20T08:03:56;6.3;5.7;4.4;2.8;;;;2.0;68.0;
78460;SPS30;67755;51.986;5.696;2023-12-20T08:06:26;6.8;6.2;4.8;3.0;;;;2.0;72.0;
78460;SPS30;67755;51.986;5.696;2023-12-20T08:08:57;7.6;6.9;5.3;3.3;;;;2.0;71.0;
78460;SPS30;67755;51.986;5.696;2023-12-20T08:11:25;7.0;6.3;4.8;2.9;;;;2.0;68.0;
78460;SPS30;67755;51.986;5.696;2023-12-20T08:13:54;6.8;6.2;5.0;3.2;;;;2.0;67.0;
78460;SPS30;67755;51.986;5.696;2023-12-20T08:16:23;6.8;6.2;4.8;3.0;;;;2.0;64.0;
78460;SPS30;67755;51.986;5.696;2023-12-20T08:18:52;6.9;6.2;4.8;2.9;;;;2.0;56.0;
78460;SPS30;67755;51.986;5.696;2023-12-20T08:21:22;8.0;7.2;5.6;3.4;;;;2.0;52.0;
78460;SPS30;67755;51.986;5.696;2023-12-20T08:23:51;6.9;6.2;4.8;3.0;;;;2.0;58.0;
78460;SPS30;67755;51.986;5.696;2023-12-20T08:26:21;6.9;6.2;4.8;3.0;;;;2.0;60.0;
78460;SPS30;67755;51.986;5.696;2023-12-20T08:28:50;6.4;5.8;4.6;2.9;;;;2.0;58.0;
78460;SPS30;67755;51.986;5.696;2023-12-20T08:31:19;6.6;5.9;4.5;2.7;;;;2.0;64.0;
78460;SPS30;67755;51.986;5.696;2023-12-20T08:33:50;7.6;6.9;5.3;3.3;;;;2.0;68.0;
78460;SPS30;67755;51.986;5.696;2023-12-20T08:36:21;7.4;6.6;5.1;3.0;;;;2.0;67.0;
78460;SPS30;67755;51.986;5.696;2023-12-20T08:38:50;7.5;6.8;5.2;3.2;;;;2.0;74.0;
78460;SPS30;67755;51.986;5.696;2023-12-20T08:41:18;7.3;6.6;5.1;3.2;;;;2.0;70.0;
78460;SPS30;67755;51.986;5.696;2023-12-20T08:43:48;6.3;5.7;4.4;2.7;;;;2.0;70.0;
78460;SPS30;67755;51.986;5.696;2023-12-20T08:46:18;7.5;6.8;5.3;3.3;;;;2.0;85.0;
78460;SPS30;67755;51.986;5.696;2023-12-20T08:48:47;6.9;6.2;4.8;2.9;;;;2.0;80.0;
78460;SPS30;67755;51.986;5.696;2023-12-20T08:51:15;7.6;6.8;5.2;3.1;;;;2.0;76.0;
78460;SPS30;67755;51.986;5.696;2023-12-20T08:53:47;7.5;6.8;5.2;3.2;;;;2.0;71.0;
78460;SPS30;67755;51.986;5.696;2023-12-20T08:56:17;7.1;6.4;4.9;2.8;;;;2.0;66.0;
78460;SPS30;67755;51.986;5.696;2023-12-20T08:58:48;6.0;5.4;4.1;2.5;;;;2.0;69.0;
78460;SPS30;67755;51.986;5.696;2023-12-20T09:01:16;9.2;8.3;6.3;3.7;;;;2.0;69.0;
78460;SPS30;67755;51.986;5.696;2023-12-20T09:03:45;7.8;7.0;5.4;3.2;;;;2.0;68.0;
78460;SPS30;67755;51.986;5.696;2023-12-20T09:06:14;7.6;6.9;5.3;3.1;;;;2.0;66.0;
78460;SPS30;67755;51.986;5.696;2023-12-20T09:08:42;6.8;6.1;4.7;2.9;;;;2.0;69.0;
78460;SPS30;67755;51.986;5.696;2023-12-20T09:11:11;7.0;6.4;4.9;3.0;;;;2.0;71.0;
78460;SPS30;67755;51.986;5.696;2023-12-20T09:13:40;6.5;5.9;4.6;2.9;;;;2.0;72.0;
78460;SPS30;67755;51.986;5.696;2023-12-20T09:16:08;7.1;6.4;5.0;3.1;;;;2.0;71.0;
78460;SPS30;67755;51.986;5.696;2023-12-20T09:18:39;6.4;5.8;4.5;2.7;;;;2.0;68.0;
78460;SPS30;67755;51.986;5.696;2023-12-20T09:21:07;7.2;6.5;5.0;3.0;;;;2.0;67.0;
78460;SPS30;67755;51.986;5.696;2023-12-20T09:23:36;7.9;7.1;5.5;3.3;;;;2.0;65.0;
78460;SPS30;67755;51.986;5.696;2023-12-20T09:26:06;7.2;6.6;5.1;3.2;;;;2.0;63.0;
78460;SPS30;67755;51.986;5.696;2023-12-20T09:28:35;7.6;6.9;5.4;3.4;;;;2.0;73.0;
78460;SPS30;67755;51.986;5.696;2023-12-20T09:31:06;6.9;6.3;4.9;3.1;;;;2.0;76.0;
78460;SPS30;67755;51.986;5.696;2023-12-20T09:33:35;6.7;6.1;4.8;3.1;;;;2.0;81.0;
78460;SPS30;67755;51.986;5.696;2023-12-20T09:36:06;6.6;6.0;4.6;2.8;;;;2.0;80.0;
78460;SPS30;67755;51.986;5.696;2023-12-20T09:38:34;6.5;5.9;4.6;2.9;;;;2.0;77.0;
78460;SPS30;67755;51.986;5.696;2023-12-20T09:41:03;7.2;6.5;5.2;3.4;;;;2.0;76.0;
78460;SPS30;67755;51.986;5.696;2023-12-20T09:43:34;6.5;6.0;4.7;3.1;;;;2.0;84.0;
78460;SPS30;67755;51.986;5.696;2023-12-20T09:46:06;6.3;5.8;4.6;3.0;;;;2.0;86.0;
78460;SPS30;67755;51.986;5.696;2023-12-20T09:48:36;7.0;6.3;4.9;3.0;;;;2.0;115.0;
78460;SPS30;67755;51.986;5.696;2023-12-20T09:51:07;7.4;6.6;5.1;3.1;;;;2.0;87.0;
78460;SPS30;67755;51.986;5.696;2023-12-20T09:53:39;7.3;6.5;5.0;3.1;;;;2.0;73.0;
78460;SPS30;67755;51.986;5.696;2023-12-20T09:56:09;6.8;6.1;4.7;2.8;;;;2.0;70.0;
78460;SPS30;67755;51.986;5.696;2023-12-20T09:58:38;7.6;6.9;5.3;3.2;;;;2.0;72.0;
78460;SPS30;67755;51.986;5.696;2023-12-20T10:01:08;7.1;6.5;5.0;3.1;;;;2.0;69.0;
78460;SPS30;67755;51.986;5.696;2023-12-20T10:03:38;6.8;6.1;4.7;2.8;;;;2.0;71.0;
78460;SPS30;67755;51.986;5.696;2023-12-20T10:06:10;9.3;8.3;6.2;3.5;;;;2.0;76.0;
78460;SPS30;67755;51.986;5.696;2023-12-20T10:08:39;9.6;8.5;6.4;3.6;;;;2.0;86.0;
78460;SPS30;67755;51.986;5.696;2023-12-20T10:11:08;7.1;6.3;4.8;2.8;;;;2.0;91.0;
78460;SPS30;67755;51.986;5.696;2023-12-20T10:13:41;7.9;7.1;5.5;3.3;;;;2.0;95.0;
78460;SPS30;67755;51.986;5.696;2023-12-20T10:16:10;6.4;5.8;4.5;2.8;;;;2.0;104.0;
78460;SPS30;67755;51.986;5.696;2023-12-20T10:18:39;6.6;5.9;4.6;2.8;;;;2.0;114.0;
78460;SPS30;67755;51.986;5.696;2023-12-20T10:21:08;7.2;6.4;4.9;2.9;;;;2.0;108.0;
78460;SPS30;67755;51.986;5.696;2023-12-20T10:23:37;7.2;6.5;5.0;3.1;;;;2.0;94.0;
78460;SPS30;67755;51.986;5.696;2023-12-20T10:26:07;7.3;6.6;5.1;3.1;;;;2.0;96.0;
78460;SPS30;67755;51.986;5.696;2023-12-20T10:28:36;8.3;7.5;5.7;3.4;;;;2.0;97.0;
78460;SPS30;67755;51.986;5.696;2023-12-20T10:31:05;7.6;6.9;5.3;3.3;;;;2.0;91.0;
78460;SPS30;67755;51.986;5.696;2023-12-20T10:33:33;6.0;5.4;4.2;2.5;;;;2.0;99.0;
78460;SPS30;67755;51.986;5.696;2023-12-20T10:36:02;7.0;6.3;4.9;2.9;;;;2.0;93.0;
78460;SPS30;67755;51.986;5.696;2023-12-20T10:38:31;6.8;6.1;4.8;2.9;;;;2.0;94.0;
78460;SPS30;67755;51.986;5.696;2023-12-20T10:41:00;6.1;5.5;4.3;2.7;;;;2.0;105.0;
78460;SPS30;67755;51.986;5.696;2023-12-20T10:43:31;5.7;5.2;4.1;2.6;;;;2.0;107.0;
78460;SPS30;67755;51.986;5.696;2023-12-20T10:46:01;7.7;6.9;5.4;3.4;;;;2.0;107.0;
78460;SPS30;67755;51.986;5.696;2023-12-20T10:48:34;6.8;6.2;4.9;3.2;;;;2.0;108.0;
78460;SPS30;67755;51.986;5.696;2023-12-20T10:51:03;5.5;5.0;4.0;2.6;;;;2.0;107.0;
78460;SPS30;67755;51.986;5.696;2023-12-20T10:53:35;5.9;5.3;4.2;2.7;;;;1.0;105.0;
78460;SPS30;67755;51.986;5.696;2023-12-20T10:56:08;6.3;5.7;4.6;3.1;;;;1.0;106.0;
78460;SPS30;67755;51.986;5.696;2023-12-20T10:58:43;5.7;5.2;4.2;2.7;;;;1.0;146.0;
78460;SPS30;67755;51.986;5.696;2023-12-20T11:01:14;6.9;6.3;4.9;3.1;;;;1.0;118.0;
78460;SPS30;67755;51.986;5.696;2023-12-20T11:03:46;7.1;6.4;5.0;3.2;;;;1.0;115.0;
78460;SPS30;67755;51.986;5.696;2023-12-20T11:06:25;6.4;5.8;4.6;2.9;;;;1.0;80.0;
78460;SPS30;67755;51.986;5.696;2023-12-20T11:09:01;6.8;6.2;4.9;3.2;;;;1.0;83.0;
78460;SPS30;67755;51.986;5.696;2023-12-20T11:11:39;6.2;5.6;4.3;2.6;;;;1.0;94.0;
78460;SPS30;67755;51.986;5.696;2023-12-20T11:14:27;6.1;5.6;4.4;2.7;;;;1.0;77.0;
78460;SPS30;67755;51.986;5.696;2023-12-20T11:17:09;6.2;5.6;4.3;2.7;;;;1.0;81.0;
78460;SPS30;67755;51.986;5.696;2023-12-20T11:19:40;6.5;5.9;4.5;2.8;;;;1.0;64.0;
78460;SPS30;67755;51.986;5.696;2023-12-20T11:22:39;6.6;5.9;4.5;2.6;;;;1.0;65.0;
78460;SPS30;67755;51.986;5.696;2023-12-20T11:25:22;7.0;6.2;4.7;2.8;;;;1.0;74.0;
78460;SPS30;67755;51.986;5.696;2023-12-20T11:28:08;5.2;4.6;3.5;2.1;;;;1.0;64.0;
78460;SPS30;67755;51.986;5.696;2023-12-20T11:30:44;6.7;6.1;4.7;2.8;;;;1.0;95.0;
78460;SPS30;67755;51.986;5.696;2023-12-20T11:33:15;6.3;5.7;4.4;2.7;;;;1.0;93.0;
78460;SPS30;67755;51.986;5.696;2023-12-20T11:35:43;6.5;5.9;4.6;2.9;;;;1.0;96.0;
78460;SPS30;67755;51.986;5.696;2023-12-20T11:38:15;6.2;5.6;4.3;2.6;;;;1.0;91.0;
78460;SPS30;67755;51.986;5.696;2023-12-20T11:40:44;6.9;6.2;4.7;2.8;;;;1.0;118.0;
78460;SPS30;67755;51.986;5.696;2023-12-20T11:43:12;6.6;5.9;4.6;2.8;;;;1.0;102.0;
78460;SPS30;67755;51.986;5.696;2023-12-20T11:46:07;5.6;5.1;4.0;2.5;;;;1.0;65.0;
78460;SPS30;67755;51.986;5.696;2023-12-20T11:48:37;7.1;6.4;5.0;3.1;;;;1.0;48.0;
78460;SPS30;67755;51.986;5.696;2023-12-20T11:51:13;5.3;4.8;3.8;2.4;;;;1.0;40.0;
78460;SPS30;67755;51.986;5.696;2023-12-20T11:53:42;5.9;5.3;4.1;2.6;;;;1.0;44.0;
78460;SPS30;67755;51.986;5.696;2023-12-20T11:56:11;4.4;4.0;3.2;2.1;;;;1.0;39.0;
78460;SPS30;67755;51.986;5.696;2023-12-20T11:58:40;5.7;5.2;4.1;2.6;;;;1.0;46.0;
78460;SPS30;67755;51.986;5.696;2023-12-20T12:01:09;6.1;5.5;4.3;2.6;;;;1.0;45.0;
78460;SPS30;67755;51.986;5.696;2023-12-20T12:03:38;4.9;4.5;3.5;2.1;;;;1.0;50.0;
78460;SPS30;67755;51.986;5.696;2023-12-20T12:06:09;6.6;6.0;4.7;2.9;;;;1.0;45.0;
78460;SPS30;67755;51.986;5.696;2023-12-20T12:08:40;4.9;4.4;3.5;2.2;;;;1.0;41.0;
78460;SPS30;67755;51.986;5.696;2023-12-20T12:11:09;5.9;5.3;4.1;2.5;;;;1.0;43.0;
78460;SPS30;67755;51.986;5.696;2023-12-20T12:13:39;5.3;4.8;3.7;2.2;;;;1.0;38.0;
78460;SPS30;67755;51.986;5.696;2023-12-20T12:16:08;5.5;5.0;3.8;2.3;;;;1.0;38.0;
78460;SPS30;67755;51.986;5.696;2023-12-20T12:18:45;5.0;4.5;3.4;2.1;;;;1.0;39.0;
78460;SPS30;67755;51.986;5.696;2023-12-20T12:21:20;5.7;5.1;3.9;2.3;;;;1.0;40.0;
78460;SPS30;67755;51.986;5.696;2023-12-20T12:23:49;6.0;5.4;4.1;2.5;;;;1.0;57.0;